This is the latest recevied weather packets stored in our database for station/object OE5ERN-10. If no packets are shown the sender has not sent any weather packets the latest 10 day(s).
| Time | Temp. | Humidity | Pressure | Rain* | Wind** | Luminosity | Snow |
|---|---|---|---|---|---|---|---|
| 1777552843 | 15° C | 27% | 1032.4 hPa | 0 mm | - | - | - |
| 1777551943 | 15.56° C | 27% | 1032.5 hPa | 0 mm | - | - | - |
| 1777551043 | 15.56° C | 26% | 1032.7 hPa | 0 mm | - | - | - |
| 1777550143 | 15.56° C | 27% | 1032.9 hPa | 0 mm | - | - | - |
| 1777549243 | 15.56° C | 27% | 1032.9 hPa | 0 mm | - | - | - |
| 1777548343 | 16.11° C | 27% | 1033.2 hPa | 0 mm | - | - | - |
| 1777547443 | 15° C | 28% | 1033.3 hPa | 0 mm | - | - | - |
| 1777546543 | 15° C | 27% | 1033.3 hPa | 0 mm | - | - | - |
| 1777545643 | 15° C | 26% | 1033.5 hPa | 0 mm | - | - | - |
| 1777544743 | 15.56° C | 26% | 1033.6 hPa | 0 mm | - | - | - |
| 1777543843 | 17.22° C | 24% | 1033.7 hPa | 0 mm | - | - | - |
| 1777542943 | 18.89° C | 22% | 1033.7 hPa | 0 mm | - | - | - |
| 1777542043 | 21.67° C | 21% | 1033.8 hPa | 0 mm | - | - | - |
| 1777541143 | 21.67° C | 21% | 1033.9 hPa | 0 mm | - | - | - |
| 1777540243 | 21.11° C | 21% | 1034.1 hPa | 0 mm | - | - | - |
| 1777539343 | 21.67° C | 21% | 1034.3 hPa | 0 mm | - | - | - |
| 1777538443 | 21.11° C | 21% | 1034.5 hPa | 0 mm | - | - | - |
| 1777537543 | 22.22° C | 19% | 1034.6 hPa | 0 mm | - | - | - |
| 1777536643 | 19.44° C | 23% | 1034.5 hPa | 0 mm | - | - | - |
| 1777535743 | 18.33° C | 23% | 1034.7 hPa | 0 mm | - | - | - |
| 1777534843 | 19.44° C | 22% | 1034.6 hPa | 0 mm | - | - | - |
| 1777533943 | 18.89° C | 24% | 1034.7 hPa | 0 mm | - | - | - |
| 1777533043 | 17.22° C | 24% | 1034.6 hPa | 0 mm | - | - | - |
| 1777532143 | 17.78° C | 23% | 1034.7 hPa | 0 mm | - | - | - |
| 1777531243 | 16.67° C | 24% | 1034.6 hPa | 0 mm | - | - | - |
* Rain latest hour (hover to see other rain measurements)
** Current wind speed in m/s (hover to see current wind gust speed)